createdAt,value
2019-02-18T00:00:21.555Z,101602.44
2019-02-18T00:02:49.833Z,101594.86
2019-02-18T00:05:18.156Z,101594.23
2019-02-18T00:07:46.449Z,101587.92
2019-02-18T00:10:14.788Z,101596.27
2019-02-18T00:12:43.051Z,101593.20
2019-02-18T00:15:11.312Z,101597.64
2019-02-18T00:17:39.608Z,101597.64
2019-02-18T00:20:07.855Z,101591.56
2019-02-18T00:22:36.107Z,101591.56
2019-02-18T00:25:04.912Z,101593.53
2019-02-18T00:27:33.165Z,101590.22
2019-02-18T00:30:01.450Z,101587.61
2019-02-18T00:32:29.725Z,101584.44
2019-02-18T00:34:58.026Z,101582.80
2019-02-18T00:37:26.273Z,101577.75
2019-02-18T00:39:54.552Z,101576.87
2019-02-18T00:42:22.795Z,101581.27
2019-02-18T00:44:51.064Z,101574.73
2019-02-18T00:47:19.320Z,101582.40
2019-02-18T00:49:47.586Z,101573.87
2019-02-18T00:52:15.850Z,101578.35
2019-02-18T00:54:45.606Z,101581.38
2019-02-18T00:57:23.826Z,101572.54
2019-02-18T00:59:52.112Z,101577.25
2019-02-18T01:02:20.358Z,101580.97
2019-02-18T01:04:48.697Z,101575.27
2019-02-18T01:07:16.972Z,101578.98
2019-02-18T01:09:45.229Z,101581.73
2019-02-18T01:12:13.501Z,101583.14
2019-02-18T01:14:41.760Z,101583.45
2019-02-18T01:17:10.037Z,101584.48
2019-02-18T01:19:38.368Z,101582.01
2019-02-18T01:22:07.393Z,101583.11
2019-02-18T01:24:35.636Z,101577.98
2019-02-18T01:27:03.937Z,101577.13
2019-02-18T01:29:32.307Z,101581.22
2019-02-18T01:32:00.597Z,101579.88
2019-02-18T01:34:28.866Z,101576.95
2019-02-18T01:36:57.162Z,101575.23
2019-02-18T01:39:28.924Z,101580.19
2019-02-18T01:41:57.219Z,101576.72
2019-02-18T01:44:25.473Z,101575.85
2019-02-18T01:46:53.764Z,101570.56
2019-02-18T01:49:22.033Z,101572.04
2019-02-18T01:51:50.297Z,101574.34
2019-02-18T01:54:18.575Z,101575.75
2019-02-18T01:56:46.843Z,101566.19
2019-02-18T01:59:15.121Z,101567.04
2019-02-18T02:01:43.408Z,101569.90
2019-02-18T02:04:11.654Z,101564.73
2019-02-18T02:06:39.933Z,101574.12
2019-02-18T02:09:09.855Z,101568.03
2019-02-18T02:11:38.121Z,101563.02
2019-02-18T02:14:06.371Z,101563.57
2019-02-18T02:16:34.643Z,101564.18
2019-02-18T02:19:02.897Z,101565.36
2019-02-18T02:21:31.143Z,101560.84
2019-02-18T02:23:59.417Z,101556.89
2019-02-18T02:26:27.672Z,101560.83
2019-02-18T02:28:55.948Z,101553.84
2019-02-18T02:31:24.193Z,101558.41
2019-02-18T02:33:52.469Z,101551.33
2019-02-18T02:36:20.743Z,101550.54
2019-02-18T02:38:49.064Z,101542.02
2019-02-18T02:41:17.320Z,101550.54
2019-02-18T02:43:45.629Z,101543.59
2019-02-18T02:46:13.880Z,101546.22
2019-02-18T02:48:42.159Z,101547.88
2019-02-18T02:51:10.427Z,101549.56
2019-02-18T02:53:38.695Z,101542.45
2019-02-18T02:56:07.048Z,101537.27
2019-02-18T02:58:35.344Z,101545.67
2019-02-18T03:01:03.607Z,101540.93
2019-02-18T03:03:31.883Z,101539.66
2019-02-18T03:06:00.125Z,101541.95
2019-02-18T03:08:28.406Z,101547.24
2019-02-18T03:10:56.668Z,101537.62
2019-02-18T03:13:24.992Z,101538.13
2019-02-18T03:15:53.228Z,101534.75
2019-02-18T03:18:21.488Z,101539.22
2019-02-18T03:20:49.760Z,101539.31
2019-02-18T03:23:18.036Z,101536.28
2019-02-18T03:25:47.646Z,101538.77
2019-02-18T03:31:47.916Z,101541.07
2019-02-18T03:34:22.452Z,101539.00
2019-02-18T03:36:50.092Z,101541.93
2019-02-18T03:39:18.366Z,101534.92
2019-02-18T03:41:46.621Z,101531.70
2019-02-18T03:44:14.927Z,101528.96
2019-02-18T03:46:43.208Z,101528.64
2019-02-18T03:49:11.486Z,101528.39
2019-02-18T03:51:39.781Z,101531.92
2019-02-18T03:54:08.106Z,101522.48
2019-02-18T03:56:36.364Z,101531.98
2019-02-18T03:59:07.435Z,101518.06
2019-02-18T04:01:35.679Z,101526.98
2019-02-18T04:04:03.962Z,101519.69
2019-02-18T04:06:32.220Z,101522.05
2019-02-18T04:09:00.469Z,101515.77
2019-02-18T04:11:28.778Z,101529.53
2019-02-18T04:13:57.064Z,101526.31
2019-02-18T04:16:25.317Z,101530.80
2019-02-18T04:18:53.591Z,101524.23
2019-02-18T04:21:21.864Z,101527.94
2019-02-18T04:23:50.145Z,101522.58
2019-02-18T04:26:18.425Z,101523.50
2019-02-18T04:28:46.713Z,101524.84
2019-02-18T04:31:14.973Z,101520.95
2019-02-18T04:33:43.251Z,101518.22
2019-02-18T04:36:11.518Z,101519.23
2019-02-18T04:38:39.791Z,101517.03
2019-02-18T04:41:08.039Z,101512.63
2019-02-18T04:43:36.312Z,101514.77
2019-02-18T04:46:04.569Z,101509.61
2019-02-18T04:48:32.866Z,101508.66
2019-02-18T04:51:01.133Z,101508.81
2019-02-18T04:53:29.375Z,101509.48
2019-02-18T04:55:57.666Z,101506.55
2019-02-18T04:58:27.553Z,101512.38
2019-02-18T05:00:55.888Z,101515.30
2019-02-18T05:03:24.136Z,101507.53
2019-02-18T05:05:52.411Z,101503.05
2019-02-18T05:08:20.690Z,101504.45
2019-02-18T05:10:49.009Z,101508.34
2019-02-18T05:13:17.320Z,101510.02
2019-02-18T05:15:45.583Z,101511.22
2019-02-18T05:18:13.884Z,101512.81
2019-02-18T05:20:42.200Z,101515.05
2019-02-18T05:23:10.395Z,101520.78
2019-02-18T05:25:38.687Z,101519.80
2019-02-18T05:28:06.954Z,101511.83
2019-02-18T05:30:35.302Z,101513.97
2019-02-18T05:33:03.549Z,101507.06
2019-02-18T05:35:31.839Z,101506.80
2019-02-18T05:38:00.089Z,101510.55
2019-02-18T05:40:28.387Z,101508.61
2019-02-18T05:42:56.630Z,101508.67
2019-02-18T05:45:24.916Z,101507.87
2019-02-18T05:47:53.269Z,101511.63
2019-02-18T05:50:21.604Z,101510.77
2019-02-18T05:52:49.895Z,101515.58
2019-02-18T05:55:18.172Z,101511.37
2019-02-18T05:57:46.441Z,101509.94
2019-02-18T06:00:15.660Z,101517.78
2019-02-18T06:02:43.947Z,101517.58
2019-02-18T06:05:12.230Z,101514.17
2019-02-18T06:07:40.497Z,101517.77
2019-02-18T06:10:09.466Z,101519.40
2019-02-18T06:12:37.719Z,101523.53
2019-02-18T06:15:08.941Z,101519.05
2019-02-18T06:17:37.191Z,101521.52
2019-02-18T06:20:08.111Z,101524.93
2019-02-18T06:22:38.456Z,101524.06
2019-02-18T06:25:06.936Z,101523.65
2019-02-18T06:27:35.190Z,101523.33
2019-02-18T06:30:08.088Z,101524.46
2019-02-18T06:32:36.373Z,101533.64
2019-02-18T06:35:05.583Z,101525.67
2019-02-18T06:37:33.841Z,101531.36
2019-02-18T06:40:02.112Z,101525.74
2019-02-18T06:42:30.376Z,101533.97
2019-02-18T06:47:43.928Z,101541.78
2019-02-18T06:50:12.199Z,101545.47
2019-02-18T06:52:40.456Z,101542.47
2019-02-18T06:55:08.742Z,101542.03
2019-02-18T06:57:41.300Z,101539.03
2019-02-18T07:00:14.616Z,101537.50
2019-02-18T07:02:44.509Z,101541.02
2019-02-18T07:05:14.432Z,101544.97
2019-02-18T07:08:02.812Z,101540.16
2019-02-18T07:10:32.806Z,101543.83
2019-02-18T07:13:01.080Z,101542.31
2019-02-18T07:15:29.339Z,101550.66
2019-02-18T07:17:57.624Z,101541.23
2019-02-18T07:20:25.912Z,101546.52
2019-02-18T07:22:54.178Z,101550.31
2019-02-18T07:25:22.479Z,101547.83
2019-02-18T07:27:50.802Z,101553.72
2019-02-18T07:30:19.269Z,101555.51
2019-02-18T07:32:47.985Z,101552.41
2019-02-18T07:35:16.202Z,101549.19
2019-02-18T07:37:44.505Z,101553.95
2019-02-18T07:40:12.779Z,101560.84
2019-02-18T07:42:41.063Z,101553.72
2019-02-18T07:45:10.178Z,101555.55
2019-02-18T07:47:38.470Z,101547.48
2019-02-18T07:50:09.357Z,101545.75
2019-02-18T07:52:37.619Z,101546.02
2019-02-18T07:55:07.421Z,101555.98
2019-02-18T07:57:35.711Z,101558.38
2019-02-18T08:00:05.373Z,101551.42
2019-02-18T08:02:33.653Z,101556.64
2019-02-18T08:05:02.389Z,101546.79
2019-02-18T08:07:30.990Z,101545.05
2019-02-18T08:09:59.247Z,101543.06
2019-02-18T08:12:27.716Z,101546.99
2019-02-18T08:14:55.995Z,101549.69
2019-02-18T08:17:37.213Z,101544.46
2019-02-18T08:20:08.690Z,101541.64
2019-02-18T08:22:36.974Z,101538.73
2019-02-18T08:25:08.214Z,101538.87
2019-02-18T08:27:36.503Z,101544.52
2019-02-18T08:30:08.201Z,101540.93
2019-02-18T08:32:36.477Z,101547.28
2019-02-18T08:35:07.790Z,101546.71
2019-02-18T08:37:36.059Z,101548.34
2019-02-18T08:40:04.924Z,101547.41
2019-02-18T08:42:34.243Z,101548.41
2019-02-18T08:45:02.641Z,101550.56
2019-02-18T08:47:30.997Z,101548.58
2019-02-18T08:49:59.281Z,101543.61
2019-02-18T08:52:27.573Z,101542.81
2019-02-18T08:54:56.834Z,101542.81
2019-02-18T08:57:25.357Z,101546.84
2019-02-18T08:59:53.670Z,101546.55
2019-02-18T09:02:21.946Z,101546.84
2019-02-18T09:04:50.217Z,101543.06
2019-02-18T09:07:18.489Z,101541.69
2019-02-18T09:09:46.758Z,101543.60
2019-02-18T09:12:15.025Z,101545.26
2019-02-18T09:14:43.325Z,101543.89
2019-02-18T09:17:11.603Z,101540.89
2019-02-18T09:19:39.998Z,101539.56
2019-02-18T09:22:29.191Z,101537.19
2019-02-18T09:24:59.233Z,101536.59
2019-02-18T09:27:27.504Z,101535.61
2019-02-18T09:29:55.859Z,101536.95
2019-02-18T09:32:24.243Z,101531.11
2019-02-18T09:34:53.202Z,101539.81
2019-02-18T09:37:21.802Z,101535.84
2019-02-18T09:39:50.107Z,101536.70
2019-02-18T09:42:18.401Z,101535.59
2019-02-18T09:44:48.333Z,101538.98
2019-02-18T09:47:16.648Z,101533.82
2019-02-18T09:49:44.914Z,101529.09
2019-02-18T09:52:13.301Z,101522.93
2019-02-18T09:54:41.553Z,101528.49
2019-02-18T09:57:09.888Z,101526.53
2019-02-18T09:59:38.179Z,101527.61
2019-02-18T10:02:06.439Z,101522.33
2019-02-18T10:04:34.724Z,101521.09
2019-02-18T10:07:03.044Z,101520.19
2019-02-18T10:09:31.324Z,101513.39
2019-02-18T10:11:59.611Z,101506.64
2019-02-18T10:14:27.886Z,101510.36
2019-02-18T10:16:56.178Z,101508.77
2019-02-18T10:19:24.526Z,101508.61
2019-02-18T10:21:52.812Z,101508.88
2019-02-18T10:24:21.076Z,101504.66
2019-02-18T10:26:49.344Z,101499.80
2019-02-18T10:29:17.621Z,101496.97
2019-02-18T10:31:45.944Z,101497.20
2019-02-18T10:34:14.235Z,101499.22
2019-02-18T10:36:42.519Z,101496.67
2019-02-18T10:39:10.813Z,101494.68
2019-02-18T10:41:39.071Z,101491.23
2019-02-18T10:44:07.367Z,101489.38
2019-02-18T10:46:35.658Z,101490.41
2019-02-18T10:49:03.977Z,101481.38
2019-02-18T10:51:32.488Z,101476.13
2019-02-18T10:54:00.773Z,101466.80
2019-02-18T10:56:29.414Z,101465.70
2019-02-18T10:58:57.700Z,101462.56
2019-02-18T11:01:25.971Z,101458.97
2019-02-18T11:03:55.916Z,101445.20
2019-02-18T11:06:24.355Z,101445.66
2019-02-18T11:08:52.809Z,101438.23
2019-02-18T11:11:21.111Z,101441.62
2019-02-18T11:13:49.477Z,101438.03
2019-02-18T11:16:17.786Z,101427.88
2019-02-18T11:18:46.082Z,101434.97
2019-02-18T11:21:14.347Z,101429.03
2019-02-18T11:23:42.630Z,101427.25
2019-02-18T11:26:10.901Z,101416.77
2019-02-18T11:28:39.190Z,101421.34
2019-02-18T11:31:07.463Z,101422.31
2019-02-18T11:33:35.827Z,101408.66
2019-02-18T11:36:04.095Z,101399.52
2019-02-18T11:38:32.370Z,101395.75
2019-02-18T11:41:00.627Z,101399.40
2019-02-18T11:43:28.946Z,101401.80
2019-02-18T11:45:57.220Z,101398.69
2019-02-18T11:48:25.501Z,101398.63
2019-02-18T11:50:54.057Z,101395.77
2019-02-18T11:53:22.326Z,101394.61
2019-02-18T11:55:50.620Z,101387.98
2019-02-18T11:58:18.902Z,101387.77
2019-02-18T12:00:47.196Z,101380.05
2019-02-18T12:03:15.437Z,101378.66
2019-02-18T12:05:44.207Z,101380.73
2019-02-18T12:08:12.448Z,101372.08
2019-02-18T12:10:40.842Z,101378.68
2019-02-18T12:13:09.186Z,101372.87
2019-02-18T12:15:37.485Z,101373.75
2019-02-18T12:18:05.857Z,101373.89
2019-02-18T12:20:34.157Z,101370.02
2019-02-18T12:23:02.793Z,101370.80
2019-02-18T12:25:31.078Z,101375.55
2019-02-18T12:28:25.311Z,101362.48
2019-02-18T12:30:53.631Z,101363.49
2019-02-18T12:33:21.878Z,101359.49
2019-02-18T12:35:50.146Z,101355.61
2019-02-18T12:38:18.398Z,101350.55
2019-02-18T12:40:46.674Z,101343.31
2019-02-18T12:43:14.949Z,101344.95
2019-02-18T12:45:43.226Z,101343.69
2019-02-18T12:48:11.483Z,101335.37
2019-02-18T12:50:39.830Z,101328.98
2019-02-18T12:53:09.834Z,101324.05
2019-02-18T12:55:38.133Z,101315.44
2019-02-18T12:58:06.459Z,101316.25
2019-02-18T13:00:34.927Z,101314.00
2019-02-18T13:03:03.189Z,101310.27
2019-02-18T13:05:31.467Z,101302.23
2019-02-18T13:07:59.785Z,101300.99
2019-02-18T13:10:34.578Z,101295.13
2019-02-18T13:13:00.933Z,101281.84
2019-02-18T13:15:29.210Z,101281.06
2019-02-18T13:17:57.463Z,101284.98
2019-02-18T13:20:25.728Z,101282.16
2019-02-18T13:22:54.006Z,101274.04
2019-02-18T13:25:22.294Z,101267.93
2019-02-18T13:27:50.643Z,101257.30
2019-02-18T13:30:20.549Z,101259.16
2019-02-18T13:32:48.822Z,101261.81
2019-02-18T13:35:17.088Z,101260.97
2019-02-18T13:37:45.432Z,101260.04
2019-02-18T13:40:31.895Z,101261.21
2019-02-18T13:43:10.870Z,101252.64
2019-02-18T13:45:42.426Z,101250.09
2019-02-18T13:48:10.698Z,101254.91
2019-02-18T13:50:38.967Z,101254.91
2019-02-18T13:53:07.619Z,101249.27
2019-02-18T13:55:36.082Z,101249.05
2019-02-18T13:58:04.337Z,101248.94
2019-02-18T14:00:32.630Z,101247.94
2019-02-18T14:03:00.919Z,101241.70
2019-02-18T14:05:29.286Z,101240.91
2019-02-18T14:08:02.832Z,101243.25
2019-02-18T14:10:31.149Z,101235.31
2019-02-18T14:12:59.444Z,101235.26
2019-02-18T14:15:27.814Z,101233.53
2019-02-18T14:17:56.109Z,101222.70
2019-02-18T14:20:24.462Z,101223.69
2019-02-18T14:22:58.079Z,101228.83
2019-02-18T14:25:26.393Z,101221.36
2019-02-18T14:27:54.858Z,101224.94
2019-02-18T14:30:23.154Z,101225.02
2019-02-18T14:32:51.451Z,101220.77
2019-02-18T14:35:19.712Z,101224.54
2019-02-18T14:37:48.526Z,101224.80
2019-02-18T14:40:22.402Z,101219.64
2019-02-18T14:42:50.661Z,101220.86
2019-02-18T14:45:18.952Z,101215.80
2019-02-18T14:47:47.218Z,101215.47
2019-02-18T14:50:17.458Z,101210.78
2019-02-18T14:52:46.056Z,101201.20
2019-02-18T14:55:14.605Z,101209.72
2019-02-18T14:57:42.900Z,101208.53
2019-02-18T15:00:19.202Z,101208.75
2019-02-18T15:02:47.571Z,101207.98
2019-02-18T15:05:15.830Z,101203.98
2019-02-18T15:07:44.385Z,101202.47
2019-02-18T15:10:13.812Z,101202.47
2019-02-18T15:12:42.093Z,101203.03
2019-02-18T15:15:10.916Z,101195.36
2019-02-18T15:17:39.208Z,101191.12
2019-02-18T15:20:08.617Z,101193.84
2019-02-18T15:22:37.290Z,101183.64
2019-02-18T15:25:07.996Z,101186.08
2019-02-18T15:27:36.281Z,101177.23
2019-02-18T15:30:08.170Z,101178.99
2019-02-18T15:32:39.770Z,101184.88
2019-02-18T15:35:08.061Z,101178.60
2019-02-18T15:37:36.534Z,101177.66
2019-02-18T15:40:07.748Z,101171.59
2019-02-18T15:42:41.845Z,101180.02
2019-02-18T15:45:06.963Z,101177.20
2019-02-18T15:47:35.301Z,101170.44
2019-02-18T15:50:04.046Z,101171.33
2019-02-18T15:52:38.253Z,101171.23
2019-02-18T15:55:06.811Z,101165.45
2019-02-18T15:57:35.087Z,101159.53
2019-02-18T16:00:03.823Z,101155.05
2019-02-18T16:02:32.094Z,101158.52
2019-02-18T16:05:00.362Z,101156.16
2019-02-18T16:07:28.684Z,101149.95
2019-02-18T16:09:56.940Z,101153.13
2019-02-18T16:12:30.985Z,101149.77
2019-02-18T16:14:59.283Z,101144.28
2019-02-18T16:17:27.652Z,101138.86
2019-02-18T16:19:55.924Z,101139.23
2019-02-18T16:22:24.309Z,101138.60
2019-02-18T16:24:54.280Z,101132.38
2019-02-18T16:27:22.595Z,101132.73
2019-02-18T16:29:50.841Z,101129.36
2019-02-18T16:32:19.161Z,101132.80
2019-02-18T16:34:47.447Z,101129.42
2019-02-18T16:37:16.181Z,101129.92
2019-02-18T16:39:44.455Z,101129.91
2019-02-18T16:42:12.748Z,101124.80
2019-02-18T16:44:41.057Z,101067.11
2019-02-18T16:47:09.353Z,101130.98
2019-02-18T16:49:38.156Z,101134.39
2019-02-18T16:55:35.616Z,101126.95
2019-02-18T16:58:03.942Z,101125.83
2019-02-18T17:00:33.382Z,101127.39
2019-02-18T17:03:01.687Z,101128.20
2019-02-18T17:05:30.264Z,101120.98
2019-02-18T17:08:10.353Z,101122.50
2019-02-18T17:10:38.616Z,101122.60
2019-02-18T17:13:08.479Z,101116.73
2019-02-18T17:15:36.947Z,101120.23
2019-02-18T17:18:05.222Z,101113.89
2019-02-18T17:20:33.483Z,101113.69
2019-02-18T17:23:01.754Z,101111.03
2019-02-18T17:25:30.378Z,101110.80
2019-02-18T17:27:58.655Z,101109.11
2019-02-18T17:30:26.924Z,101109.65
2019-02-18T17:32:55.252Z,101105.61
2019-02-18T17:35:25.642Z,101103.41
2019-02-18T17:37:53.929Z,101097.41
2019-02-18T17:40:22.793Z,101102.09
2019-02-18T17:42:51.084Z,101096.44
2019-02-18T17:45:19.467Z,101100.88
2019-02-18T17:47:47.740Z,101089.72
2019-02-18T17:50:16.992Z,101090.42
2019-02-18T17:52:50.155Z,101089.42
2019-02-18T17:55:23.068Z,101088.58
2019-02-18T17:57:51.376Z,101085.64
2019-02-18T18:00:31.468Z,101089.70
2019-02-18T18:02:59.754Z,101083.44
2019-02-18T18:05:28.014Z,101082.43
2019-02-18T18:07:56.419Z,101074.70
2019-02-18T18:10:24.961Z,101074.58
2019-02-18T18:12:53.240Z,101069.52
2019-02-18T18:15:21.545Z,101067.19
2019-02-18T18:17:49.825Z,101061.04
2019-02-18T18:20:19.833Z,101055.24
2019-02-18T18:22:48.136Z,101055.11
2019-02-18T18:25:18.457Z,101051.92
2019-02-18T18:27:46.728Z,101048.47
2019-02-18T18:30:17.548Z,101051.77
2019-02-18T18:32:45.984Z,101040.44
2019-02-18T18:35:14.403Z,101039.06
2019-02-18T18:37:42.658Z,101037.97
2019-02-18T18:40:13.687Z,101034.98
2019-02-18T18:42:42.376Z,101035.23
2019-02-18T18:45:15.694Z,101031.41
2019-02-18T18:47:44.200Z,101030.42
2019-02-18T18:50:15.026Z,101032.38
2019-02-18T18:52:43.664Z,101038.11
2019-02-18T18:55:12.115Z,101038.11
2019-02-18T18:57:44.934Z,101040.78
2019-02-18T19:00:20.837Z,101038.80
2019-02-18T19:02:49.118Z,101028.34
2019-02-18T19:05:17.977Z,101027.37
2019-02-18T19:07:52.483Z,101028.66
2019-02-18T19:10:20.797Z,101029.70
2019-02-18T19:12:49.113Z,101030.95
2019-02-18T19:15:20.492Z,101036.27
2019-02-18T19:17:48.768Z,101032.72
2019-02-18T19:20:17.129Z,101028.42
2019-02-18T19:22:45.410Z,101033.03
2019-02-18T19:25:13.892Z,101029.95
2019-02-18T19:27:42.161Z,101028.45
2019-02-18T19:30:22.886Z,101028.71
2019-02-18T19:32:51.140Z,101027.82
2019-02-18T19:35:19.479Z,101032.96
2019-02-18T19:37:47.734Z,101028.38
2019-02-18T19:40:16.160Z,101025.75
2019-02-18T19:42:46.052Z,101030.78
2019-02-18T19:45:22.891Z,101033.00
2019-02-18T19:47:51.167Z,101036.68
2019-02-18T19:50:19.538Z,101032.48
2019-02-18T19:52:47.841Z,101029.32
2019-02-18T19:55:17.807Z,101027.27
2019-02-18T19:57:46.161Z,101023.83
2019-02-18T20:00:17.738Z,101024.63
2019-02-18T20:02:46.021Z,101029.92
2019-02-18T20:05:14.549Z,101027.13
2019-02-18T20:07:44.157Z,101030.31
2019-02-18T20:10:13.092Z,101025.21
2019-02-18T20:12:41.389Z,101021.11
2019-02-18T20:15:12.781Z,101024.55
2019-02-18T20:17:41.138Z,101015.66
2019-02-18T20:20:11.934Z,101018.36
2019-02-18T20:22:40.214Z,101021.03
2019-02-18T20:25:09.378Z,101014.75
2019-02-18T20:27:37.654Z,101013.77
2019-02-18T20:30:32.864Z,101015.86
2019-02-18T20:33:04.190Z,101020.63
2019-02-18T20:35:32.490Z,101015.25
2019-02-18T20:38:00.762Z,101006.41
2019-02-18T20:40:29.163Z,101003.17
2019-02-18T20:42:57.465Z,100998.81
2019-02-18T20:45:25.725Z,101003.70
2019-02-18T20:47:54.002Z,101006.33
2019-02-18T20:50:22.308Z,101000.03
2019-02-18T20:52:50.584Z,101002.23
2019-02-18T20:55:19.234Z,101001.14
2019-02-18T20:58:06.930Z,100997.05
2019-02-18T21:00:35.207Z,100995.96
2019-02-18T21:03:03.520Z,100994.05
2019-02-18T21:05:31.785Z,100984.11
2019-02-18T21:08:00.167Z,100983.59
2019-02-18T21:10:28.595Z,100989.36
2019-02-18T21:12:56.952Z,100983.91
2019-02-18T21:15:25.276Z,100978.86
2019-02-18T21:17:53.630Z,100980.10
2019-02-18T21:20:22.045Z,100974.66
2019-02-18T21:22:50.602Z,100970.64
2019-02-18T21:25:18.978Z,100966.48
2019-02-18T21:27:47.290Z,100964.42
2019-02-18T21:30:16.920Z,100960.65
2019-02-18T21:32:45.193Z,100965.86
2019-02-18T21:35:13.531Z,100955.72
2019-02-18T21:37:42.288Z,100951.84
2019-02-18T21:40:11.490Z,100949.88
2019-02-18T21:42:39.814Z,100952.56
2019-02-18T21:45:13.459Z,100955.55
2019-02-18T21:47:41.735Z,100952.08
2019-02-18T21:50:10.695Z,100958.38
2019-02-18T21:52:39.330Z,100957.45
2019-02-18T21:55:09.311Z,100953.16
2019-02-18T21:57:37.580Z,100954.42
2019-02-18T22:00:18.446Z,100952.88
2019-02-18T22:02:46.932Z,100950.85
2019-02-18T22:05:15.567Z,100956.63
2019-02-18T22:07:43.832Z,100957.64
2019-02-18T22:10:12.249Z,100962.25
2019-02-18T22:12:40.503Z,100954.93
2019-02-18T22:15:11.419Z,100955.45
2019-02-18T22:17:39.692Z,100945.09
2019-02-18T22:20:12.212Z,100947.36
2019-02-18T22:22:40.446Z,100944.73
2019-02-18T22:25:10.597Z,100941.88
2019-02-18T22:27:39.240Z,100945.62
2019-02-18T22:30:11.051Z,100942.86
2019-02-18T22:32:39.309Z,100941.44
2019-02-18T22:35:08.116Z,100945.70
2019-02-18T22:37:37.983Z,100943.45
2019-02-18T22:40:11.430Z,100937.34
2019-02-18T22:42:39.689Z,100934.45
2019-02-18T22:45:09.659Z,100935.97
2019-02-18T22:47:37.938Z,100933.30
2019-02-18T22:50:07.665Z,100934.45
2019-02-18T22:52:36.115Z,100927.31
2019-02-18T22:55:05.844Z,100930.39
2019-02-18T22:57:34.130Z,100926.36
2019-02-18T23:00:02.517Z,100926.82
2019-02-18T23:02:30.789Z,100924.63
2019-02-18T23:04:59.053Z,100923.67
2019-02-18T23:07:27.327Z,100927.22
2019-02-18T23:09:55.587Z,100933.19
2019-02-18T23:12:23.874Z,100931.18
2019-02-18T23:14:52.148Z,100921.77
2019-02-18T23:17:20.432Z,100921.20
2019-02-18T23:19:48.697Z,100920.09
2019-02-18T23:22:16.977Z,100910.38
2019-02-18T23:24:45.239Z,100908.28
2019-02-18T23:27:13.532Z,100912.44
2019-02-18T23:29:41.787Z,100913.20
2019-02-18T23:32:10.046Z,100909.26
2019-02-18T23:34:38.327Z,100908.63
2019-02-18T23:37:06.663Z,100902.13
2019-02-18T23:39:34.941Z,100903.83
2019-02-18T23:42:03.210Z,100905.77
2019-02-18T23:44:31.462Z,100901.92
2019-02-18T23:46:59.725Z,100900.88
2019-02-18T23:49:27.994Z,100897.64
2019-02-18T23:51:56.260Z,100898.98
2019-02-18T23:54:24.535Z,100901.30
2019-02-18T23:56:52.775Z,100901.84
2019-02-18T23:59:21.068Z,100902.24
